Terminal Aerodrome Forecast
Issued by NWS

Home | Current Version | Previous Version | Text Only | Print | Product List | Glossary Off
Versions: 1 2 3 4 5 6 7 8 9 10 11 12 13 14 15

000
FTUS42 KMHX 312321
TAFOAJ
TAF
KOAJ 312321Z 0100/0124 21010G20KT P6SM SKC
     FM010100 25005KT P6SM SKC
     FM010600 30005KT P6SM SKC
     FM011300 02010KT P6SM SKC
      AMD LTD TO CLD VIS AND WIND=

USA.gov is the U.S. government's official web portal to all federal, state and local government web resources and services.